sensor_id;sensor_type;location;lat;lon;timestamp;temperature;humidity
12408;DHT22;6268;48.188;17.134;2022-11-15T00:01:39;5.80;99.90
12408;DHT22;6268;48.188;17.134;2022-11-15T00:04:09;5.70;99.90
12408;DHT22;6268;48.188;17.134;2022-11-15T00:06:40;5.60;99.90
12408;DHT22;6268;48.188;17.134;2022-11-15T00:09:08;5.60;99.90
12408;DHT22;6268;48.188;17.134;2022-11-15T00:11:37;5.50;99.90
12408;DHT22;6268;48.188;17.134;2022-11-15T00:14:06;5.60;99.90
12408;DHT22;6268;48.188;17.134;2022-11-15T00:16:34;5.60;99.90
12408;DHT22;6268;48.188;17.134;2022-11-15T00:19:03;5.60;99.90
12408;DHT22;6268;48.188;17.134;2022-11-15T00:21:32;5.70;99.90
12408;DHT22;6268;48.188;17.134;2022-11-15T00:24:02;5.70;99.90
12408;DHT22;6268;48.188;17.134;2022-11-15T00:26:31;5.70;99.90
12408;DHT22;6268;48.188;17.134;2022-11-15T00:28:59;5.70;99.90
12408;DHT22;6268;48.188;17.134;2022-11-15T00:31:28;5.70;99.90
12408;DHT22;6268;48.188;17.134;2022-11-15T00:33:56;5.70;99.90
12408;DHT22;6268;48.188;17.134;2022-11-15T00:36:25;5.70;99.90
12408;DHT22;6268;48.188;17.134;2022-11-15T00:38:54;5.60;99.90
12408;DHT22;6268;48.188;17.134;2022-11-15T00:41:24;5.70;99.90
12408;DHT22;6268;48.188;17.134;2022-11-15T00:43:52;5.60;99.90
12408;DHT22;6268;48.188;17.134;2022-11-15T00:46:21;5.70;99.90
12408;DHT22;6268;48.188;17.134;2022-11-15T00:48:50;5.70;99.90
12408;DHT22;6268;48.188;17.134;2022-11-15T00:51:18;5.70;99.90
12408;DHT22;6268;48.188;17.134;2022-11-15T00:53:47;5.70;99.90
12408;DHT22;6268;48.188;17.134;2022-11-15T00:56:16;5.70;99.90
12408;DHT22;6268;48.188;17.134;2022-11-15T00:58:46;5.80;99.90
12408;DHT22;6268;48.188;17.134;2022-11-15T01:01:15;5.70;99.90
12408;DHT22;6268;48.188;17.134;2022-11-15T01:03:43;5.70;99.90
12408;DHT22;6268;48.188;17.134;2022-11-15T01:06:12;5.70;99.90
12408;DHT22;6268;48.188;17.134;2022-11-15T01:08:41;5.70;99.90
12408;DHT22;6268;48.188;17.134;2022-11-15T01:11:11;5.80;99.90
12408;DHT22;6268;48.188;17.134;2022-11-15T01:13:40;5.90;99.90
12408;DHT22;6268;48.188;17.134;2022-11-15T01:16:13;5.90;99.90
12408;DHT22;6268;48.188;17.134;2022-11-15T01:18:43;5.90;99.90
12408;DHT22;6268;48.188;17.134;2022-11-15T01:21:15;5.90;99.90
12408;DHT22;6268;48.188;17.134;2022-11-15T01:23:45;5.90;99.90
12408;DHT22;6268;48.188;17.134;2022-11-15T01:26:16;5.90;99.90
12408;DHT22;6268;48.188;17.134;2022-11-15T01:28:44;5.90;99.90
12408;DHT22;6268;48.188;17.134;2022-11-15T01:31:17;5.80;99.90
12408;DHT22;6268;48.188;17.134;2022-11-15T01:33:47;5.90;99.90
12408;DHT22;6268;48.188;17.134;2022-11-15T01:36:18;5.90;99.90
12408;DHT22;6268;48.188;17.134;2022-11-15T01:38:53;5.90;99.90
12408;DHT22;6268;48.188;17.134;2022-11-15T01:41:24;5.90;99.90
12408;DHT22;6268;48.188;17.134;2022-11-15T01:43:55;5.80;99.90
12408;DHT22;6268;48.188;17.134;2022-11-15T01:46:30;5.80;99.90
12408;DHT22;6268;48.188;17.134;2022-11-15T01:49:05;5.80;99.90
12408;DHT22;6268;48.188;17.134;2022-11-15T01:51:41;5.80;99.90
12408;DHT22;6268;48.188;17.134;2022-11-15T01:54:13;5.80;99.90
12408;DHT22;6268;48.188;17.134;2022-11-15T01:56:47;5.90;99.90
12408;DHT22;6268;48.188;17.134;2022-11-15T01:59:19;5.90;99.90
12408;DHT22;6268;48.188;17.134;2022-11-15T02:02:05;5.90;99.90
12408;DHT22;6268;48.188;17.134;2022-11-15T02:04:37;5.90;99.90
12408;DHT22;6268;48.188;17.134;2022-11-15T02:07:09;5.80;99.90
12408;DHT22;6268;48.188;17.134;2022-11-15T02:09:42;5.80;99.90
12408;DHT22;6268;48.188;17.134;2022-11-15T02:12:14;5.80;99.90
12408;DHT22;6268;48.188;17.134;2022-11-15T02:14:48;5.90;99.90
12408;DHT22;6268;48.188;17.134;2022-11-15T02:17:39;5.90;99.90
12408;DHT22;6268;48.188;17.134;2022-11-15T02:20:52;5.90;99.90
12408;DHT22;6268;48.188;17.134;2022-11-15T02:27:11;6.00;99.90
12408;DHT22;6268;48.188;17.134;2022-11-15T02:30:29;6.10;99.90
12408;DHT22;6268;48.188;17.134;2022-11-15T02:33:16;6.20;99.90
12408;DHT22;6268;48.188;17.134;2022-11-15T02:35:58;6.10;99.90
12408;DHT22;6268;48.188;17.134;2022-11-15T02:38:34;6.10;99.90
12408;DHT22;6268;48.188;17.134;2022-11-15T02:41:11;6.20;99.90
12408;DHT22;6268;48.188;17.134;2022-11-15T02:43:47;6.30;99.90
12408;DHT22;6268;48.188;17.134;2022-11-15T02:46:31;6.30;99.90
12408;DHT22;6268;48.188;17.134;2022-11-15T02:49:21;6.40;99.90
12408;DHT22;6268;48.188;17.134;2022-11-15T02:51:52;6.40;99.90
12408;DHT22;6268;48.188;17.134;2022-11-15T02:54:25;6.40;99.90
12408;DHT22;6268;48.188;17.134;2022-11-15T02:57:00;6.40;99.90
12408;DHT22;6268;48.188;17.134;2022-11-15T03:00:01;6.40;99.90
12408;DHT22;6268;48.188;17.134;2022-11-15T03:02:48;6.40;99.90
12408;DHT22;6268;48.188;17.134;2022-11-15T03:05:33;6.30;99.90
12408;DHT22;6268;48.188;17.134;2022-11-15T03:08:08;6.40;99.90
12408;DHT22;6268;48.188;17.134;2022-11-15T03:10:47;6.40;99.90
12408;DHT22;6268;48.188;17.134;2022-11-15T03:13:27;6.40;99.90
12408;DHT22;6268;48.188;17.134;2022-11-15T03:16:04;6.40;99.90
12408;DHT22;6268;48.188;17.134;2022-11-15T03:18:41;6.40;99.90
12408;DHT22;6268;48.188;17.134;2022-11-15T03:21:14;6.40;99.90
12408;DHT22;6268;48.188;17.134;2022-11-15T03:23:47;6.40;99.90
12408;DHT22;6268;48.188;17.134;2022-11-15T03:26:19;6.50;99.90
12408;DHT22;6268;48.188;17.134;2022-11-15T03:28:54;6.50;99.90
12408;DHT22;6268;48.188;17.134;2022-11-15T03:31:29;6.60;99.90
12408;DHT22;6268;48.188;17.134;2022-11-15T03:34:25;6.60;99.90
12408;DHT22;6268;48.188;17.134;2022-11-15T03:36:56;6.60;99.90
12408;DHT22;6268;48.188;17.134;2022-11-15T03:39:26;6.60;99.90
12408;DHT22;6268;48.188;17.134;2022-11-15T03:42:04;6.50;99.90
12408;DHT22;6268;48.188;17.134;2022-11-15T03:44:52;6.50;99.90
12408;DHT22;6268;48.188;17.134;2022-11-15T03:47:31;6.50;99.90
12408;DHT22;6268;48.188;17.134;2022-11-15T03:50:07;6.40;99.90
12408;DHT22;6268;48.188;17.134;2022-11-15T03:52:40;6.40;99.90
12408;DHT22;6268;48.188;17.134;2022-11-15T03:55:14;6.40;99.90
12408;DHT22;6268;48.188;17.134;2022-11-15T03:57:44;6.50;99.90
12408;DHT22;6268;48.188;17.134;2022-11-15T04:00:13;6.50;99.90
12408;DHT22;6268;48.188;17.134;2022-11-15T04:02:42;6.60;99.90
12408;DHT22;6268;48.188;17.134;2022-11-15T04:05:12;6.60;99.90
12408;DHT22;6268;48.188;17.134;2022-11-15T04:07:40;6.60;99.90
12408;DHT22;6268;48.188;17.134;2022-11-15T04:10:10;6.60;99.90
12408;DHT22;6268;48.188;17.134;2022-11-15T04:12:41;6.60;99.90
12408;DHT22;6268;48.188;17.134;2022-11-15T04:15:15;6.50;99.90
12408;DHT22;6268;48.188;17.134;2022-11-15T04:17:46;6.50;99.90
12408;DHT22;6268;48.188;17.134;2022-11-15T04:20:20;6.40;99.90
12408;DHT22;6268;48.188;17.134;2022-11-15T04:23:10;6.50;99.90
12408;DHT22;6268;48.188;17.134;2022-11-15T04:25:59;6.40;99.90
12408;DHT22;6268;48.188;17.134;2022-11-15T04:28:30;6.40;99.90
12408;DHT22;6268;48.188;17.134;2022-11-15T04:30:59;6.40;99.90
12408;DHT22;6268;48.188;17.134;2022-11-15T04:33:28;6.40;99.90
12408;DHT22;6268;48.188;17.134;2022-11-15T04:35:58;6.40;99.90
12408;DHT22;6268;48.188;17.134;2022-11-15T04:38:44;6.50;99.90
12408;DHT22;6268;48.188;17.134;2022-11-15T04:41:13;6.50;99.90
12408;DHT22;6268;48.188;17.134;2022-11-15T04:43:41;6.50;99.90
12408;DHT22;6268;48.188;17.134;2022-11-15T04:46:10;6.40;99.90
12408;DHT22;6268;48.188;17.134;2022-11-15T04:48:38;6.50;99.90
12408;DHT22;6268;48.188;17.134;2022-11-15T04:51:08;6.50;99.90
12408;DHT22;6268;48.188;17.134;2022-11-15T04:53:37;6.50;99.90
12408;DHT22;6268;48.188;17.134;2022-11-15T04:56:06;6.50;99.90
12408;DHT22;6268;48.188;17.134;2022-11-15T04:58:35;6.40;99.90
12408;DHT22;6268;48.188;17.134;2022-11-15T05:01:07;6.40;99.90
12408;DHT22;6268;48.188;17.134;2022-11-15T05:03:36;6.30;99.90
12408;DHT22;6268;48.188;17.134;2022-11-15T05:06:20;6.30;99.90
12408;DHT22;6268;48.188;17.134;2022-11-15T05:08:49;6.30;99.90
12408;DHT22;6268;48.188;17.134;2022-11-15T05:11:18;6.40;99.90
12408;DHT22;6268;48.188;17.134;2022-11-15T05:13:47;6.40;99.90
12408;DHT22;6268;48.188;17.134;2022-11-15T05:16:16;6.40;99.90
12408;DHT22;6268;48.188;17.134;2022-11-15T05:18:45;6.40;99.90
12408;DHT22;6268;48.188;17.134;2022-11-15T05:21:14;6.50;99.90
12408;DHT22;6268;48.188;17.134;2022-11-15T05:23:45;6.40;99.90
12408;DHT22;6268;48.188;17.134;2022-11-15T05:26:16;6.50;99.90
12408;DHT22;6268;48.188;17.134;2022-11-15T05:28:46;6.50;99.90
12408;DHT22;6268;48.188;17.134;2022-11-15T05:31:15;6.50;99.90
12408;DHT22;6268;48.188;17.134;2022-11-15T05:33:44;6.50;99.90
12408;DHT22;6268;48.188;17.134;2022-11-15T05:36:17;6.60;99.90
12408;DHT22;6268;48.188;17.134;2022-11-15T05:38:51;6.50;99.90
12408;DHT22;6268;48.188;17.134;2022-11-15T05:41:22;6.50;99.90
12408;DHT22;6268;48.188;17.134;2022-11-15T05:43:58;6.50;99.90
12408;DHT22;6268;48.188;17.134;2022-11-15T05:46:29;6.60;99.90
12408;DHT22;6268;48.188;17.134;2022-11-15T05:48:58;6.60;99.90
12408;DHT22;6268;48.188;17.134;2022-11-15T05:51:29;6.50;99.90
12408;DHT22;6268;48.188;17.134;2022-11-15T05:54:00;6.50;99.90
12408;DHT22;6268;48.188;17.134;2022-11-15T05:56:30;6.70;99.90
12408;DHT22;6268;48.188;17.134;2022-11-15T05:58:59;6.80;99.90
12408;DHT22;6268;48.188;17.134;2022-11-15T06:01:28;6.90;99.90
12408;DHT22;6268;48.188;17.134;2022-11-15T06:03:56;6.90;99.90
12408;DHT22;6268;48.188;17.134;2022-11-15T06:06:27;6.80;99.90
12408;DHT22;6268;48.188;17.134;2022-11-15T06:08:56;6.80;99.90
12408;DHT22;6268;48.188;17.134;2022-11-15T06:11:26;6.80;99.90
12408;DHT22;6268;48.188;17.134;2022-11-15T06:13:54;6.90;99.90
12408;DHT22;6268;48.188;17.134;2022-11-15T06:16:24;6.80;99.90
12408;DHT22;6268;48.188;17.134;2022-11-15T06:18:53;6.80;99.90
12408;DHT22;6268;48.188;17.134;2022-11-15T06:21:22;6.70;99.90
12408;DHT22;6268;48.188;17.134;2022-11-15T06:23:51;6.80;99.90
12408;DHT22;6268;48.188;17.134;2022-11-15T06:26:20;6.80;99.90
12408;DHT22;6268;48.188;17.134;2022-11-15T06:28:50;6.80;99.90
12408;DHT22;6268;48.188;17.134;2022-11-15T06:31:19;6.80;99.90
12408;DHT22;6268;48.188;17.134;2022-11-15T06:33:47;6.90;99.90
12408;DHT22;6268;48.188;17.134;2022-11-15T06:36:17;6.90;99.90
12408;DHT22;6268;48.188;17.134;2022-11-15T06:38:46;6.90;99.90
12408;DHT22;6268;48.188;17.134;2022-11-15T06:41:15;6.90;99.90
12408;DHT22;6268;48.188;17.134;2022-11-15T06:43:44;6.90;99.90
12408;DHT22;6268;48.188;17.134;2022-11-15T06:46:14;7.00;99.90
12408;DHT22;6268;48.188;17.134;2022-11-15T06:48:43;7.00;99.90
12408;DHT22;6268;48.188;17.134;2022-11-15T06:51:12;6.90;99.90
12408;DHT22;6268;48.188;17.134;2022-11-15T06:53:40;7.00;99.90
12408;DHT22;6268;48.188;17.134;2022-11-15T06:56:09;7.00;99.90
12408;DHT22;6268;48.188;17.134;2022-11-15T06:58:38;7.10;99.90
12408;DHT22;6268;48.188;17.134;2022-11-15T07:01:08;7.10;99.90
12408;DHT22;6268;48.188;17.134;2022-11-15T07:03:40;7.10;99.90
12408;DHT22;6268;48.188;17.134;2022-11-15T07:06:10;7.00;99.90
12408;DHT22;6268;48.188;17.134;2022-11-15T07:08:39;7.10;99.90
12408;DHT22;6268;48.188;17.134;2022-11-15T07:11:09;7.10;99.90
12408;DHT22;6268;48.188;17.134;2022-11-15T07:13:37;7.10;99.90
12408;DHT22;6268;48.188;17.134;2022-11-15T07:16:07;7.10;99.90
12408;DHT22;6268;48.188;17.134;2022-11-15T07:18:39;7.00;99.90
12408;DHT22;6268;48.188;17.134;2022-11-15T07:21:10;7.00;99.90
12408;DHT22;6268;48.188;17.134;2022-11-15T07:23:40;7.10;99.90
12408;DHT22;6268;48.188;17.134;2022-11-15T07:26:08;7.10;99.90
12408;DHT22;6268;48.188;17.134;2022-11-15T07:28:37;7.00;99.90
12408;DHT22;6268;48.188;17.134;2022-11-15T07:31:08;7.10;99.90
12408;DHT22;6268;48.188;17.134;2022-11-15T07:33:38;7.10;99.90
12408;DHT22;6268;48.188;17.134;2022-11-15T07:36:08;7.10;99.90
12408;DHT22;6268;48.188;17.134;2022-11-15T07:38:37;7.10;99.90
12408;DHT22;6268;48.188;17.134;2022-11-15T07:41:09;7.10;99.90
12408;DHT22;6268;48.188;17.134;2022-11-15T07:43:38;7.10;99.90
12408;DHT22;6268;48.188;17.134;2022-11-15T07:46:08;7.10;99.90
12408;DHT22;6268;48.188;17.134;2022-11-15T07:48:39;7.10;99.90
12408;DHT22;6268;48.188;17.134;2022-11-15T07:51:12;7.10;99.90
12408;DHT22;6268;48.188;17.134;2022-11-15T07:53:41;7.10;99.90
12408;DHT22;6268;48.188;17.134;2022-11-15T07:56:11;7.10;99.90
12408;DHT22;6268;48.188;17.134;2022-11-15T07:58:40;7.10;99.90
12408;DHT22;6268;48.188;17.134;2022-11-15T08:01:10;7.20;99.90
12408;DHT22;6268;48.188;17.134;2022-11-15T08:03:40;7.20;99.90
12408;DHT22;6268;48.188;17.134;2022-11-15T08:06:09;7.20;99.90
12408;DHT22;6268;48.188;17.134;2022-11-15T08:08:38;7.20;99.90
12408;DHT22;6268;48.188;17.134;2022-11-15T08:11:06;7.20;99.90
12408;DHT22;6268;48.188;17.134;2022-11-15T08:13:35;7.20;99.90
12408;DHT22;6268;48.188;17.134;2022-11-15T08:16:06;7.20;99.90
12408;DHT22;6268;48.188;17.134;2022-11-15T08:22:19;7.20;99.90
12408;DHT22;6268;48.188;17.134;2022-11-15T08:25:15;7.20;99.90
12408;DHT22;6268;48.188;17.134;2022-11-15T08:27:44;7.20;99.90
12408;DHT22;6268;48.188;17.134;2022-11-15T08:30:16;7.20;99.90
12408;DHT22;6268;48.188;17.134;2022-11-15T08:32:44;7.20;99.90
12408;DHT22;6268;48.188;17.134;2022-11-15T08:35:13;7.20;99.90
12408;DHT22;6268;48.188;17.134;2022-11-15T08:37:44;7.20;99.90
12408;DHT22;6268;48.188;17.134;2022-11-15T08:40:12;7.20;99.90
12408;DHT22;6268;48.188;17.134;2022-11-15T08:42:41;7.20;99.90
12408;DHT22;6268;48.188;17.134;2022-11-15T08:45:13;7.20;99.90
12408;DHT22;6268;48.188;17.134;2022-11-15T08:47:42;7.20;99.90
12408;DHT22;6268;48.188;17.134;2022-11-15T08:50:18;7.20;99.90
12408;DHT22;6268;48.188;17.134;2022-11-15T08:52:49;7.20;99.90
12408;DHT22;6268;48.188;17.134;2022-11-15T08:55:18;7.30;99.90
12408;DHT22;6268;48.188;17.134;2022-11-15T08:57:50;7.20;99.90
12408;DHT22;6268;48.188;17.134;2022-11-15T09:00:23;7.30;99.90
12408;DHT22;6268;48.188;17.134;2022-11-15T09:02:52;7.30;99.90
12408;DHT22;6268;48.188;17.134;2022-11-15T09:05:23;7.30;99.90
12408;DHT22;6268;48.188;17.134;2022-11-15T09:07:54;7.40;99.90
12408;DHT22;6268;48.188;17.134;2022-11-15T09:10:25;7.50;99.90
12408;DHT22;6268;48.188;17.134;2022-11-15T09:12:56;7.40;99.90
12408;DHT22;6268;48.188;17.134;2022-11-15T09:15:25;7.40;99.90
12408;DHT22;6268;48.188;17.134;2022-11-15T09:17:54;7.50;99.90
12408;DHT22;6268;48.188;17.134;2022-11-15T09:20:26;7.50;99.90
12408;DHT22;6268;48.188;17.134;2022-11-15T09:23:00;7.50;99.90
12408;DHT22;6268;48.188;17.134;2022-11-15T09:25:29;7.50;99.90
12408;DHT22;6268;48.188;17.134;2022-11-15T09:28:01;7.50;99.90
12408;DHT22;6268;48.188;17.134;2022-11-15T09:30:34;7.50;99.90
12408;DHT22;6268;48.188;17.134;2022-11-15T09:33:07;7.50;99.90
12408;DHT22;6268;48.188;17.134;2022-11-15T09:35:36;7.40;99.90
12408;DHT22;6268;48.188;17.134;2022-11-15T09:38:06;7.40;99.90
12408;DHT22;6268;48.188;17.134;2022-11-15T09:40:36;7.50;99.90
12408;DHT22;6268;48.188;17.134;2022-11-15T09:43:22;7.50;99.90
12408;DHT22;6268;48.188;17.134;2022-11-15T09:46:05;7.50;99.90
12408;DHT22;6268;48.188;17.134;2022-11-15T09:48:49;7.60;99.90
12408;DHT22;6268;48.188;17.134;2022-11-15T09:51:26;7.60;99.90
12408;DHT22;6268;48.188;17.134;2022-11-15T09:54:03;7.70;99.90
12408;DHT22;6268;48.188;17.134;2022-11-15T09:57:04;7.60;99.90
12408;DHT22;6268;48.188;17.134;2022-11-15T10:00:08;7.70;99.90
12408;DHT22;6268;48.188;17.134;2022-11-15T10:03:10;7.80;99.90
12408;DHT22;6268;48.188;17.134;2022-11-15T10:05:43;7.80;99.90
12408;DHT22;6268;48.188;17.134;2022-11-15T10:11:22;7.70;99.90
12408;DHT22;6268;48.188;17.134;2022-11-15T10:14:11;7.70;99.90
12408;DHT22;6268;48.188;17.134;2022-11-15T10:17:10;8.00;99.90
12408;DHT22;6268;48.188;17.134;2022-11-15T10:20:06;8.20;99.90
12408;DHT22;6268;48.188;17.134;2022-11-15T10:22:44;8.30;99.90
12408;DHT22;6268;48.188;17.134;2022-11-15T10:25:19;8.50;99.90
12408;DHT22;6268;48.188;17.134;2022-11-15T10:28:00;8.50;99.90
12408;DHT22;6268;48.188;17.134;2022-11-15T10:30:36;8.50;99.90
12408;DHT22;6268;48.188;17.134;2022-11-15T10:33:29;8.50;99.90
12408;DHT22;6268;48.188;17.134;2022-11-15T10:36:21;8.40;99.90
12408;DHT22;6268;48.188;17.134;2022-11-15T10:38:56;8.40;99.90
12408;DHT22;6268;48.188;17.134;2022-11-15T10:41:39;8.40;99.90
12408;DHT22;6268;48.188;17.134;2022-11-15T10:44:19;8.50;99.90
12408;DHT22;6268;48.188;17.134;2022-11-15T10:47:06;8.50;99.90
12408;DHT22;6268;48.188;17.134;2022-11-15T10:49:57;8.50;99.90
12408;DHT22;6268;48.188;17.134;2022-11-15T10:52:28;8.30;99.90
12408;DHT22;6268;48.188;17.134;2022-11-15T10:55:03;8.30;99.90
12408;DHT22;6268;48.188;17.134;2022-11-15T10:57:49;8.20;99.90
12408;DHT22;6268;48.188;17.134;2022-11-15T11:00:44;8.10;99.90
12408;DHT22;6268;48.188;17.134;2022-11-15T11:03:28;8.10;99.90
12408;DHT22;6268;48.188;17.134;2022-11-15T11:06:06;8.10;99.90
12408;DHT22;6268;48.188;17.134;2022-11-15T11:08:37;8.30;99.90
12408;DHT22;6268;48.188;17.134;2022-11-15T11:11:06;8.40;99.90
12408;DHT22;6268;48.188;17.134;2022-11-15T11:13:37;8.50;99.90
12408;DHT22;6268;48.188;17.134;2022-11-15T11:16:27;8.30;99.90
12408;DHT22;6268;48.188;17.134;2022-11-15T11:19:31;8.40;99.90
12408;DHT22;6268;48.188;17.134;2022-11-15T11:22:13;8.30;99.90
12408;DHT22;6268;48.188;17.134;2022-11-15T11:24:58;8.30;99.90
12408;DHT22;6268;48.188;17.134;2022-11-15T11:27:47;8.30;99.90
12408;DHT22;6268;48.188;17.134;2022-11-15T11:30:37;8.30;99.90
12408;DHT22;6268;48.188;17.134;2022-11-15T11:33:20;8.30;99.90
12408;DHT22;6268;48.188;17.134;2022-11-15T11:36:03;8.30;99.90
12408;DHT22;6268;48.188;17.134;2022-11-15T11:39:09;8.30;99.90
12408;DHT22;6268;48.188;17.134;2022-11-15T11:41:55;8.40;99.90
12408;DHT22;6268;48.188;17.134;2022-11-15T11:44:43;8.40;99.90
12408;DHT22;6268;48.188;17.134;2022-11-15T11:47:27;8.30;99.90
12408;DHT22;6268;48.188;17.134;2022-11-15T11:50:11;8.40;99.90
12408;DHT22;6268;48.188;17.134;2022-11-15T11:52:57;8.30;99.90
12408;DHT22;6268;48.188;17.134;2022-11-15T11:55:33;8.40;99.90
12408;DHT22;6268;48.188;17.134;2022-11-15T11:58:11;8.40;99.90
12408;DHT22;6268;48.188;17.134;2022-11-15T12:00:47;8.30;99.90
12408;DHT22;6268;48.188;17.134;2022-11-15T12:03:25;8.30;99.90
12408;DHT22;6268;48.188;17.134;2022-11-15T12:06:01;8.30;99.90
12408;DHT22;6268;48.188;17.134;2022-11-15T12:08:40;8.20;99.90
12408;DHT22;6268;48.188;17.134;2022-11-15T12:11:17;8.30;99.90
12408;DHT22;6268;48.188;17.134;2022-11-15T12:13:53;8.20;99.90
12408;DHT22;6268;48.188;17.134;2022-11-15T12:16:28;8.30;99.90
12408;DHT22;6268;48.188;17.134;2022-11-15T12:19:01;8.30;99.90
12408;DHT22;6268;48.188;17.134;2022-11-15T12:21:40;8.30;99.90
12408;DHT22;6268;48.188;17.134;2022-11-15T12:24:16;8.30;99.90
12408;DHT22;6268;48.188;17.134;2022-11-15T12:26:53;8.20;99.90
12408;DHT22;6268;48.188;17.134;2022-11-15T12:29:41;8.20;99.90
12408;DHT22;6268;48.188;17.134;2022-11-15T12:32:24;8.20;99.90
12408;DHT22;6268;48.188;17.134;2022-11-15T12:34:55;8.20;99.90
12408;DHT22;6268;48.188;17.134;2022-11-15T12:37:49;8.20;99.90
12408;DHT22;6268;48.188;17.134;2022-11-15T12:40:30;8.20;99.90
12408;DHT22;6268;48.188;17.134;2022-11-15T12:46:12;8.20;99.90
12408;DHT22;6268;48.188;17.134;2022-11-15T12:48:51;8.20;99.90
12408;DHT22;6268;48.188;17.134;2022-11-15T12:54:55;8.20;99.90
12408;DHT22;6268;48.188;17.134;2022-11-15T12:57:37;8.30;99.90
12408;DHT22;6268;48.188;17.134;2022-11-15T13:03:25;8.40;99.90
12408;DHT22;6268;48.188;17.134;2022-11-15T13:06:04;8.30;99.90
12408;DHT22;6268;48.188;17.134;2022-11-15T13:08:38;8.30;99.90
12408;DHT22;6268;48.188;17.134;2022-11-15T13:11:48;8.30;99.90
12408;DHT22;6268;48.188;17.134;2022-11-15T13:17:35;8.40;99.90
12408;DHT22;6268;48.188;17.134;2022-11-15T13:20:31;8.50;99.90
12408;DHT22;6268;48.188;17.134;2022-11-15T13:23:07;8.50;99.90
12408;DHT22;6268;48.188;17.134;2022-11-15T13:26:12;8.50;99.90
12408;DHT22;6268;48.188;17.134;2022-11-15T13:28:46;8.50;99.90
12408;DHT22;6268;48.188;17.134;2022-11-15T13:31:28;8.50;99.90
12408;DHT22;6268;48.188;17.134;2022-11-15T13:34:14;8.50;99.90
12408;DHT22;6268;48.188;17.134;2022-11-15T13:37:13;8.50;99.90
12408;DHT22;6268;48.188;17.134;2022-11-15T13:40:16;8.50;99.90
12408;DHT22;6268;48.188;17.134;2022-11-15T13:42:49;8.50;99.90
12408;DHT22;6268;48.188;17.134;2022-11-15T13:45:19;8.50;99.90
12408;DHT22;6268;48.188;17.134;2022-11-15T13:47:53;8.50;99.90
12408;DHT22;6268;48.188;17.134;2022-11-15T13:50:27;8.60;99.90
12408;DHT22;6268;48.188;17.134;2022-11-15T13:53:02;8.50;99.90
12408;DHT22;6268;48.188;17.134;2022-11-15T13:55:32;8.50;99.90
12408;DHT22;6268;48.188;17.134;2022-11-15T13:58:03;8.50;99.90
12408;DHT22;6268;48.188;17.134;2022-11-15T14:00:37;8.50;99.90
12408;DHT22;6268;48.188;17.134;2022-11-15T14:03:22;8.50;99.90
12408;DHT22;6268;48.188;17.134;2022-11-15T14:06:06;8.50;99.90
12408;DHT22;6268;48.188;17.134;2022-11-15T14:08:39;8.50;99.90
12408;DHT22;6268;48.188;17.134;2022-11-15T14:11:13;8.60;99.90
12408;DHT22;6268;48.188;17.134;2022-11-15T14:14:04;8.50;99.90
12408;DHT22;6268;48.188;17.134;2022-11-15T14:16:43;8.50;99.90
12408;DHT22;6268;48.188;17.134;2022-11-15T14:19:37;8.50;99.90
12408;DHT22;6268;48.188;17.134;2022-11-15T14:22:18;8.50;99.90
12408;DHT22;6268;48.188;17.134;2022-11-15T14:25:15;8.60;99.90
12408;DHT22;6268;48.188;17.134;2022-11-15T14:28:12;8.60;99.90
12408;DHT22;6268;48.188;17.134;2022-11-15T14:30:51;8.60;99.90
12408;DHT22;6268;48.188;17.134;2022-11-15T14:33:30;8.60;99.90
12408;DHT22;6268;48.188;17.134;2022-11-15T14:36:22;8.60;99.90
12408;DHT22;6268;48.188;17.134;2022-11-15T14:38:53;8.60;99.90
12408;DHT22;6268;48.188;17.134;2022-11-15T14:41:25;8.60;99.90
12408;DHT22;6268;48.188;17.134;2022-11-15T14:43:58;8.60;99.90
12408;DHT22;6268;48.188;17.134;2022-11-15T14:46:27;8.50;99.90
12408;DHT22;6268;48.188;17.134;2022-11-15T14:48:57;8.60;99.90
12408;DHT22;6268;48.188;17.134;2022-11-15T14:51:28;8.60;99.90
12408;DHT22;6268;48.188;17.134;2022-11-15T14:54:01;8.60;99.90
12408;DHT22;6268;48.188;17.134;2022-11-15T14:56:30;8.50;99.90
12408;DHT22;6268;48.188;17.134;2022-11-15T14:58:58;8.50;99.90
12408;DHT22;6268;48.188;17.134;2022-11-15T15:01:27;8.50;99.90
12408;DHT22;6268;48.188;17.134;2022-11-15T15:03:57;8.50;99.90
12408;DHT22;6268;48.188;17.134;2022-11-15T15:06:27;8.50;99.90
12408;DHT22;6268;48.188;17.134;2022-11-15T15:08:56;8.50;99.90
12408;DHT22;6268;48.188;17.134;2022-11-15T15:11:27;8.50;99.90
12408;DHT22;6268;48.188;17.134;2022-11-15T15:14:38;8.50;99.90
12408;DHT22;6268;48.188;17.134;2022-11-15T15:16:58;8.50;99.90
12408;DHT22;6268;48.188;17.134;2022-11-15T15:19:29;8.50;99.90
12408;DHT22;6268;48.188;17.134;2022-11-15T15:21:59;8.60;99.90
12408;DHT22;6268;48.188;17.134;2022-11-15T15:24:34;8.50;99.90
12408;DHT22;6268;48.188;17.134;2022-11-15T15:27:03;8.60;99.90
12408;DHT22;6268;48.188;17.134;2022-11-15T15:29:32;8.60;99.90
12408;DHT22;6268;48.188;17.134;2022-11-15T15:32:00;8.60;99.90
12408;DHT22;6268;48.188;17.134;2022-11-15T15:34:31;8.60;99.90
12408;DHT22;6268;48.188;17.134;2022-11-15T15:37:19;8.60;99.90
12408;DHT22;6268;48.188;17.134;2022-11-15T15:39:52;8.70;99.90
12408;DHT22;6268;48.188;17.134;2022-11-15T15:42:22;8.60;99.90
12408;DHT22;6268;48.188;17.134;2022-11-15T15:44:51;8.60;99.90
12408;DHT22;6268;48.188;17.134;2022-11-15T15:47:21;8.70;99.90
12408;DHT22;6268;48.188;17.134;2022-11-15T15:49:52;8.70;99.90
12408;DHT22;6268;48.188;17.134;2022-11-15T15:52:21;8.70;99.90
12408;DHT22;6268;48.188;17.134;2022-11-15T15:54:50;8.70;99.90
12408;DHT22;6268;48.188;17.134;2022-11-15T15:57:21;8.70;99.90
12408;DHT22;6268;48.188;17.134;2022-11-15T15:59:49;8.70;99.90
12408;DHT22;6268;48.188;17.134;2022-11-15T16:02:21;8.70;99.90
12408;DHT22;6268;48.188;17.134;2022-11-15T16:04:50;8.70;99.90
12408;DHT22;6268;48.188;17.134;2022-11-15T16:07:21;8.70;99.90
12408;DHT22;6268;48.188;17.134;2022-11-15T16:09:51;8.70;99.90
12408;DHT22;6268;48.188;17.134;2022-11-15T16:12:32;8.70;99.90
12408;DHT22;6268;48.188;17.134;2022-11-15T16:15:03;8.70;99.90
12408;DHT22;6268;48.188;17.134;2022-11-15T16:17:34;8.70;99.90
12408;DHT22;6268;48.188;17.134;2022-11-15T16:20:23;8.70;99.90
12408;DHT22;6268;48.188;17.134;2022-11-15T16:22:58;8.70;99.90
12408;DHT22;6268;48.188;17.134;2022-11-15T16:25:38;8.70;99.90
12408;DHT22;6268;48.188;17.134;2022-11-15T16:28:18;8.70;99.90
12408;DHT22;6268;48.188;17.134;2022-11-15T16:30:58;8.60;99.90
12408;DHT22;6268;48.188;17.134;2022-11-15T16:33:27;8.60;99.90
12408;DHT22;6268;48.188;17.134;2022-11-15T16:35:58;8.60;99.90
12408;DHT22;6268;48.188;17.134;2022-11-15T16:38:28;8.60;99.90
12408;DHT22;6268;48.188;17.134;2022-11-15T16:40:58;8.60;99.90
12408;DHT22;6268;48.188;17.134;2022-11-15T16:43:27;8.70;99.90
12408;DHT22;6268;48.188;17.134;2022-11-15T16:45:56;8.60;99.90
12408;DHT22;6268;48.188;17.134;2022-11-15T16:48:26;8.60;99.90
12408;DHT22;6268;48.188;17.134;2022-11-15T16:51:03;8.60;99.90
12408;DHT22;6268;48.188;17.134;2022-11-15T16:53:36;8.50;99.90
12408;DHT22;6268;48.188;17.134;2022-11-15T16:56:16;8.50;99.90
12408;DHT22;6268;48.188;17.134;2022-11-15T16:58:50;8.50;99.90